< < Back
Terminal Aerodrome Forecast


Current Version              Previous Versions:   1  2  3  4  5  6  7  8  9  

Terminal Aerodrome Forecast

495
FTUS42 KTAE 282000 AAA
TAFVLD
TAF AMD
KVLD 282021Z 2820/0118 05010KT 5SM -RA BR OVC006
     FM010200 05009KT P6SM VCSH OVC006
     FM010700 04007KT 4SM BR OVC003
     FM011400 04005KT P6SM OVC008=

Latest METAR

204
SAUS70 KWBC 282300 RRN
MTRVLD
METAR KVLD 282253Z 05007KT 2 1/2SM BR OVC008 07/06 A3046 RMK AO2 RAE41
CIG 004V010 SLP325 P0000 T00720061


USA.gov is the U.S. government's official web portal to all federal, state and local government web resources and services.